sensor_id;sensor_type;location;lat;lon;timestamp;P1;durP1;ratioP1;P2;durP2;ratioP2
982;SDS011;480;48.124;11.578;2023-02-17T00:01:18;8.23;;;4.53;;
982;SDS011;480;48.124;11.578;2023-02-17T00:03:46;4.20;;;3.80;;
982;SDS011;480;48.124;11.578;2023-02-17T00:06:15;5.87;;;3.73;;
982;SDS011;480;48.124;11.578;2023-02-17T00:08:44;4.73;;;3.80;;
982;SDS011;480;48.124;11.578;2023-02-17T00:11:12;4.50;;;3.83;;
982;SDS011;480;48.124;11.578;2023-02-17T00:13:40;5.17;;;4.17;;
982;SDS011;480;48.124;11.578;2023-02-17T00:16:08;4.70;;;3.97;;
982;SDS011;480;48.124;11.578;2023-02-17T00:18:36;6.70;;;3.90;;
982;SDS011;480;48.124;11.578;2023-02-17T00:21:10;5.23;;;3.50;;
982;SDS011;480;48.124;11.578;2023-02-17T00:23:42;7.67;;;3.50;;
982;SDS011;480;48.124;11.578;2023-02-17T00:26:11;7.87;;;4.43;;
982;SDS011;480;48.124;11.578;2023-02-17T00:28:38;6.57;;;3.63;;
982;SDS011;480;48.124;11.578;2023-02-17T00:31:06;6.10;;;4.00;;
982;SDS011;480;48.124;11.578;2023-02-17T00:33:34;7.33;;;4.17;;
982;SDS011;480;48.124;11.578;2023-02-17T00:36:02;6.10;;;4.30;;
982;SDS011;480;48.124;11.578;2023-02-17T00:38:32;5.00;;;3.13;;
982;SDS011;480;48.124;11.578;2023-02-17T00:40:59;7.33;;;4.57;;
982;SDS011;480;48.124;11.578;2023-02-17T00:43:27;5.00;;;3.50;;
982;SDS011;480;48.124;11.578;2023-02-17T00:45:55;7.13;;;4.50;;
982;SDS011;480;48.124;11.578;2023-02-17T00:48:22;5.17;;;4.30;;
982;SDS011;480;48.124;11.578;2023-02-17T00:50:49;4.97;;;3.30;;
982;SDS011;480;48.124;11.578;2023-02-17T00:53:16;7.83;;;3.60;;
982;SDS011;480;48.124;11.578;2023-02-17T00:55:43;4.67;;;4.23;;
982;SDS011;480;48.124;11.578;2023-02-17T00:58:10;3.33;;;3.03;;
982;SDS011;480;48.124;11.578;2023-02-17T01:00:42;6.00;;;4.47;;
982;SDS011;480;48.124;11.578;2023-02-17T01:03:09;6.03;;;4.00;;
982;SDS011;480;48.124;11.578;2023-02-17T01:05:38;4.40;;;3.00;;
982;SDS011;480;48.124;11.578;2023-02-17T01:08:06;5.73;;;3.60;;
982;SDS011;480;48.124;11.578;2023-02-17T01:10:35;4.90;;;3.57;;
982;SDS011;480;48.124;11.578;2023-02-17T01:13:03;5.30;;;4.10;;
982;SDS011;480;48.124;11.578;2023-02-17T01:15:35;7.83;;;4.60;;
982;SDS011;480;48.124;11.578;2023-02-17T01:18:04;5.40;;;4.40;;
982;SDS011;480;48.124;11.578;2023-02-17T01:20:33;5.70;;;4.17;;
982;SDS011;480;48.124;11.578;2023-02-17T01:23:00;6.40;;;4.77;;
982;SDS011;480;48.124;11.578;2023-02-17T01:25:30;4.43;;;3.57;;
982;SDS011;480;48.124;11.578;2023-02-17T01:27:57;8.77;;;5.47;;
982;SDS011;480;48.124;11.578;2023-02-17T01:30:24;5.10;;;3.80;;
982;SDS011;480;48.124;11.578;2023-02-17T01:32:51;5.40;;;3.50;;
982;SDS011;480;48.124;11.578;2023-02-17T01:35:19;5.37;;;3.87;;
982;SDS011;480;48.124;11.578;2023-02-17T01:37:46;5.57;;;3.83;;
982;SDS011;480;48.124;11.578;2023-02-17T01:40:13;5.27;;;3.80;;
982;SDS011;480;48.124;11.578;2023-02-17T01:42:41;6.83;;;4.67;;
982;SDS011;480;48.124;11.578;2023-02-17T01:48:00;4.73;;;3.77;;
982;SDS011;480;48.124;11.578;2023-02-17T01:50:33;6.33;;;4.50;;
982;SDS011;480;48.124;11.578;2023-02-17T01:53:03;6.97;;;4.77;;
982;SDS011;480;48.124;11.578;2023-02-17T01:55:32;6.93;;;4.00;;
982;SDS011;480;48.124;11.578;2023-02-17T01:58:03;5.10;;;4.60;;
982;SDS011;480;48.124;11.578;2023-02-17T02:00:32;4.80;;;4.07;;
982;SDS011;480;48.124;11.578;2023-02-17T02:03:01;3.40;;;3.07;;
982;SDS011;480;48.124;11.578;2023-02-17T02:05:33;3.87;;;3.20;;
982;SDS011;480;48.124;11.578;2023-02-17T02:08:00;6.90;;;3.47;;
982;SDS011;480;48.124;11.578;2023-02-17T02:10:28;3.53;;;3.20;;
982;SDS011;480;48.124;11.578;2023-02-17T02:12:55;4.17;;;3.40;;
982;SDS011;480;48.124;11.578;2023-02-17T02:15:22;5.30;;;3.37;;
982;SDS011;480;48.124;11.578;2023-02-17T02:17:59;5.17;;;3.70;;
982;SDS011;480;48.124;11.578;2023-02-17T02:23:53;4.90;;;3.70;;
982;SDS011;480;48.124;11.578;2023-02-17T02:35:28;4.67;;;2.70;;
982;SDS011;480;48.124;11.578;2023-02-17T02:38:02;4.47;;;3.33;;
982;SDS011;480;48.124;11.578;2023-02-17T02:40:36;4.47;;;2.97;;
982;SDS011;480;48.124;11.578;2023-02-17T02:43:10;4.77;;;4.00;;
982;SDS011;480;48.124;11.578;2023-02-17T02:45:37;4.67;;;3.60;;
982;SDS011;480;48.124;11.578;2023-02-17T02:48:06;5.80;;;4.30;;
982;SDS011;480;48.124;11.578;2023-02-17T02:50:37;4.90;;;4.37;;
982;SDS011;480;48.124;11.578;2023-02-17T02:53:29;6.23;;;3.60;;
982;SDS011;480;48.124;11.578;2023-02-17T02:56:12;6.23;;;3.30;;
982;SDS011;480;48.124;11.578;2023-02-17T02:58:48;5.67;;;3.13;;
982;SDS011;480;48.124;11.578;2023-02-17T03:01:22;4.27;;;3.47;;
982;SDS011;480;48.124;11.578;2023-02-17T03:03:59;7.40;;;3.03;;
982;SDS011;480;48.124;11.578;2023-02-17T03:06:35;6.20;;;3.73;;
982;SDS011;480;48.124;11.578;2023-02-17T03:09:08;3.90;;;2.90;;
982;SDS011;480;48.124;11.578;2023-02-17T03:11:38;5.10;;;3.33;;
982;SDS011;480;48.124;11.578;2023-02-17T03:14:08;4.90;;;4.47;;
982;SDS011;480;48.124;11.578;2023-02-17T03:16:37;5.73;;;4.23;;
982;SDS011;480;48.124;11.578;2023-02-17T03:19:07;5.20;;;3.43;;
982;SDS011;480;48.124;11.578;2023-02-17T03:21:36;4.73;;;4.07;;
982;SDS011;480;48.124;11.578;2023-02-17T03:24:06;5.90;;;4.57;;
982;SDS011;480;48.124;11.578;2023-02-17T03:26:34;4.27;;;3.00;;
982;SDS011;480;48.124;11.578;2023-02-17T03:29:01;8.33;;;3.50;;
982;SDS011;480;48.124;11.578;2023-02-17T03:31:28;3.20;;;2.50;;
982;SDS011;480;48.124;11.578;2023-02-17T03:33:55;4.20;;;3.33;;
982;SDS011;480;48.124;11.578;2023-02-17T03:36:24;4.73;;;3.70;;
982;SDS011;480;48.124;11.578;2023-02-17T03:38:51;6.83;;;3.60;;
982;SDS011;480;48.124;11.578;2023-02-17T03:41:18;6.07;;;3.63;;
982;SDS011;480;48.124;11.578;2023-02-17T03:43:45;6.80;;;3.77;;
982;SDS011;480;48.124;11.578;2023-02-17T03:46:13;5.47;;;3.23;;
982;SDS011;480;48.124;11.578;2023-02-17T03:48:40;4.43;;;2.93;;
982;SDS011;480;48.124;11.578;2023-02-17T03:51:11;4.97;;;3.63;;
982;SDS011;480;48.124;11.578;2023-02-17T03:53:41;4.50;;;3.00;;
982;SDS011;480;48.124;11.578;2023-02-17T03:56:10;4.37;;;3.60;;
982;SDS011;480;48.124;11.578;2023-02-17T03:58:38;5.70;;;3.27;;
982;SDS011;480;48.124;11.578;2023-02-17T04:01:06;6.10;;;3.40;;
982;SDS011;480;48.124;11.578;2023-02-17T04:03:34;5.40;;;3.30;;
982;SDS011;480;48.124;11.578;2023-02-17T04:06:01;3.47;;;2.70;;
982;SDS011;480;48.124;11.578;2023-02-17T04:08:29;4.43;;;2.80;;
982;SDS011;480;48.124;11.578;2023-02-17T04:10:59;4.93;;;2.97;;
982;SDS011;480;48.124;11.578;2023-02-17T04:13:27;3.80;;;2.73;;
982;SDS011;480;48.124;11.578;2023-02-17T04:15:54;4.50;;;3.13;;
982;SDS011;480;48.124;11.578;2023-02-17T04:18:21;3.20;;;2.93;;
982;SDS011;480;48.124;11.578;2023-02-17T04:20:49;4.83;;;3.17;;
982;SDS011;480;48.124;11.578;2023-02-17T04:23:17;3.73;;;2.80;;
982;SDS011;480;48.124;11.578;2023-02-17T04:25:44;3.60;;;2.70;;
982;SDS011;480;48.124;11.578;2023-02-17T04:28:14;3.03;;;2.20;;
982;SDS011;480;48.124;11.578;2023-02-17T04:30:43;4.27;;;2.97;;
982;SDS011;480;48.124;11.578;2023-02-17T04:33:10;4.17;;;2.87;;
982;SDS011;480;48.124;11.578;2023-02-17T04:35:38;6.20;;;2.90;;
982;SDS011;480;48.124;11.578;2023-02-17T04:38:05;5.30;;;3.40;;
982;SDS011;480;48.124;11.578;2023-02-17T04:40:32;4.30;;;3.00;;
982;SDS011;480;48.124;11.578;2023-02-17T04:42:59;4.63;;;3.30;;
982;SDS011;480;48.124;11.578;2023-02-17T04:45:28;3.40;;;2.50;;
982;SDS011;480;48.124;11.578;2023-02-17T04:47:55;6.53;;;3.00;;
982;SDS011;480;48.124;11.578;2023-02-17T04:50:22;5.70;;;3.90;;
982;SDS011;480;48.124;11.578;2023-02-17T04:52:49;5.30;;;2.30;;
982;SDS011;480;48.124;11.578;2023-02-17T04:55:16;4.83;;;2.80;;
982;SDS011;480;48.124;11.578;2023-02-17T04:57:44;4.80;;;3.10;;
982;SDS011;480;48.124;11.578;2023-02-17T05:00:11;3.53;;;2.97;;
982;SDS011;480;48.124;11.578;2023-02-17T05:02:40;2.80;;;1.90;;
982;SDS011;480;48.124;11.578;2023-02-17T05:05:07;5.70;;;3.23;;
982;SDS011;480;48.124;11.578;2023-02-17T05:07:34;7.00;;;2.60;;
982;SDS011;480;48.124;11.578;2023-02-17T05:10:01;3.27;;;2.43;;
982;SDS011;480;48.124;11.578;2023-02-17T05:12:28;6.70;;;2.90;;
982;SDS011;480;48.124;11.578;2023-02-17T05:14:55;3.73;;;2.50;;
982;SDS011;480;48.124;11.578;2023-02-17T05:17:22;4.20;;;2.87;;
982;SDS011;480;48.124;11.578;2023-02-17T05:19:51;8.30;;;2.87;;
982;SDS011;480;48.124;11.578;2023-02-17T05:22:18;3.93;;;3.43;;
982;SDS011;480;48.124;11.578;2023-02-17T05:24:45;2.43;;;2.23;;
982;SDS011;480;48.124;11.578;2023-02-17T05:27:11;3.37;;;2.33;;
982;SDS011;480;48.124;11.578;2023-02-17T05:29:38;4.00;;;2.90;;
982;SDS011;480;48.124;11.578;2023-02-17T05:32:05;3.10;;;2.70;;
982;SDS011;480;48.124;11.578;2023-02-17T05:34:33;4.40;;;2.40;;
982;SDS011;480;48.124;11.578;2023-02-17T05:37:01;6.70;;;3.20;;
982;SDS011;480;48.124;11.578;2023-02-17T05:39:29;3.20;;;2.40;;
982;SDS011;480;48.124;11.578;2023-02-17T05:41:56;3.33;;;3.03;;
982;SDS011;480;48.124;11.578;2023-02-17T05:44:23;3.73;;;2.37;;
982;SDS011;480;48.124;11.578;2023-02-17T05:46:50;5.20;;;3.30;;
982;SDS011;480;48.124;11.578;2023-02-17T05:49:17;4.80;;;2.90;;
982;SDS011;480;48.124;11.578;2023-02-17T05:51:44;4.10;;;2.90;;
982;SDS011;480;48.124;11.578;2023-02-17T05:54:12;3.80;;;2.33;;
982;SDS011;480;48.124;11.578;2023-02-17T05:56:39;3.70;;;2.47;;
982;SDS011;480;48.124;11.578;2023-02-17T05:59:06;2.70;;;2.33;;
982;SDS011;480;48.124;11.578;2023-02-17T06:01:33;3.80;;;3.37;;
982;SDS011;480;48.124;11.578;2023-02-17T06:04:01;3.13;;;2.50;;
982;SDS011;480;48.124;11.578;2023-02-17T06:06:30;3.70;;;2.70;;
982;SDS011;480;48.124;11.578;2023-02-17T06:08:57;3.33;;;2.37;;
982;SDS011;480;48.124;11.578;2023-02-17T06:11:25;3.07;;;2.47;;
982;SDS011;480;48.124;11.578;2023-02-17T06:13:52;2.93;;;2.20;;
982;SDS011;480;48.124;11.578;2023-02-17T06:16:19;4.53;;;2.50;;
982;SDS011;480;48.124;11.578;2023-02-17T06:18:46;2.73;;;2.30;;
982;SDS011;480;48.124;11.578;2023-02-17T06:21:13;3.73;;;2.60;;
982;SDS011;480;48.124;11.578;2023-02-17T06:23:40;4.03;;;2.47;;
982;SDS011;480;48.124;11.578;2023-02-17T06:26:07;3.63;;;2.70;;
982;SDS011;480;48.124;11.578;2023-02-17T06:28:36;2.70;;;2.43;;
982;SDS011;480;48.124;11.578;2023-02-17T06:31:03;3.37;;;2.63;;
982;SDS011;480;48.124;11.578;2023-02-17T06:33:30;2.30;;;2.00;;
982;SDS011;480;48.124;11.578;2023-02-17T06:35:57;5.47;;;3.20;;
982;SDS011;480;48.124;11.578;2023-02-17T06:38:24;4.33;;;2.40;;
982;SDS011;480;48.124;11.578;2023-02-17T06:40:51;5.23;;;2.93;;
982;SDS011;480;48.124;11.578;2023-02-17T06:43:19;4.27;;;2.80;;
982;SDS011;480;48.124;11.578;2023-02-17T06:45:47;3.93;;;2.67;;
982;SDS011;480;48.124;11.578;2023-02-17T06:48:14;3.00;;;2.30;;
982;SDS011;480;48.124;11.578;2023-02-17T06:50:41;4.13;;;2.13;;
982;SDS011;480;48.124;11.578;2023-02-17T06:53:08;2.80;;;2.60;;
982;SDS011;480;48.124;11.578;2023-02-17T06:55:36;3.50;;;2.70;;
982;SDS011;480;48.124;11.578;2023-02-17T06:58:03;2.97;;;2.67;;
982;SDS011;480;48.124;11.578;2023-02-17T07:00:32;2.60;;;1.87;;
982;SDS011;480;48.124;11.578;2023-02-17T07:03:01;2.93;;;2.10;;
982;SDS011;480;48.124;11.578;2023-02-17T07:05:28;2.47;;;2.00;;
982;SDS011;480;48.124;11.578;2023-02-17T07:07:55;3.83;;;2.70;;
982;SDS011;480;48.124;11.578;2023-02-17T07:10:24;2.90;;;2.20;;
982;SDS011;480;48.124;11.578;2023-02-17T07:12:51;3.97;;;2.33;;
982;SDS011;480;48.124;11.578;2023-02-17T07:15:19;3.17;;;2.33;;
982;SDS011;480;48.124;11.578;2023-02-17T07:17:46;6.67;;;2.20;;
982;SDS011;480;48.124;11.578;2023-02-17T07:20:15;3.47;;;2.73;;
982;SDS011;480;48.124;11.578;2023-02-17T07:22:42;5.83;;;2.17;;
982;SDS011;480;48.124;11.578;2023-02-17T07:25:09;5.90;;;2.60;;
982;SDS011;480;48.124;11.578;2023-02-17T07:27:36;3.10;;;2.20;;
982;SDS011;480;48.124;11.578;2023-02-17T07:30:04;3.90;;;2.90;;
982;SDS011;480;48.124;11.578;2023-02-17T07:32:32;5.20;;;2.63;;
982;SDS011;480;48.124;11.578;2023-02-17T07:34:59;9.03;;;2.53;;
982;SDS011;480;48.124;11.578;2023-02-17T07:37:28;4.37;;;2.40;;
982;SDS011;480;48.124;11.578;2023-02-17T07:39:55;4.00;;;2.03;;
982;SDS011;480;48.124;11.578;2023-02-17T07:42:22;4.10;;;2.60;;
982;SDS011;480;48.124;11.578;2023-02-17T07:44:49;4.73;;;2.00;;
982;SDS011;480;48.124;11.578;2023-02-17T07:47:16;4.63;;;4.13;;
982;SDS011;480;48.124;11.578;2023-02-17T07:49:43;3.20;;;2.70;;
982;SDS011;480;48.124;11.578;2023-02-17T07:52:10;7.50;;;2.97;;
982;SDS011;480;48.124;11.578;2023-02-17T07:54:39;3.10;;;2.43;;
982;SDS011;480;48.124;11.578;2023-02-17T07:57:06;5.10;;;2.80;;
982;SDS011;480;48.124;11.578;2023-02-17T07:59:33;4.17;;;2.57;;
982;SDS011;480;48.124;11.578;2023-02-17T08:02:00;5.77;;;2.50;;
982;SDS011;480;48.124;11.578;2023-02-17T08:04:27;5.77;;;2.73;;
982;SDS011;480;48.124;11.578;2023-02-17T08:06:56;3.97;;;2.00;;
982;SDS011;480;48.124;11.578;2023-02-17T08:09:23;4.63;;;3.17;;
982;SDS011;480;48.124;11.578;2023-02-17T08:12:09;5.80;;;2.83;;
982;SDS011;480;48.124;11.578;2023-02-17T08:14:58;3.83;;;2.13;;
982;SDS011;480;48.124;11.578;2023-02-17T08:17:26;8.70;;;2.70;;
982;SDS011;480;48.124;11.578;2023-02-17T08:19:54;3.40;;;1.80;;
982;SDS011;480;48.124;11.578;2023-02-17T08:22:21;2.30;;;1.70;;
982;SDS011;480;48.124;11.578;2023-02-17T08:24:48;3.80;;;2.50;;
982;SDS011;480;48.124;11.578;2023-02-17T08:27:17;2.60;;;2.40;;
982;SDS011;480;48.124;11.578;2023-02-17T08:29:45;6.23;;;2.03;;
982;SDS011;480;48.124;11.578;2023-02-17T08:32:13;4.57;;;2.10;;
982;SDS011;480;48.124;11.578;2023-02-17T08:34:41;3.77;;;2.27;;
982;SDS011;480;48.124;11.578;2023-02-17T08:37:09;7.53;;;3.10;;
982;SDS011;480;48.124;11.578;2023-02-17T08:39:37;5.70;;;2.57;;
982;SDS011;480;48.124;11.578;2023-02-17T08:42:04;4.50;;;2.50;;
982;SDS011;480;48.124;11.578;2023-02-17T08:44:34;4.60;;;2.70;;
982;SDS011;480;48.124;11.578;2023-02-17T08:47:04;2.97;;;2.70;;
982;SDS011;480;48.124;11.578;2023-02-17T08:49:37;4.13;;;1.87;;
982;SDS011;480;48.124;11.578;2023-02-17T08:52:08;5.13;;;2.70;;
982;SDS011;480;48.124;11.578;2023-02-17T08:54:35;4.13;;;2.43;;
982;SDS011;480;48.124;11.578;2023-02-17T08:57:03;5.20;;;2.50;;
982;SDS011;480;48.124;11.578;2023-02-17T08:59:42;3.00;;;1.90;;
982;SDS011;480;48.124;11.578;2023-02-17T09:02:15;5.23;;;2.40;;
982;SDS011;480;48.124;11.578;2023-02-17T09:04:43;7.63;;;3.10;;
982;SDS011;480;48.124;11.578;2023-02-17T09:07:12;2.37;;;2.13;;
982;SDS011;480;48.124;11.578;2023-02-17T09:09:40;2.33;;;2.13;;
982;SDS011;480;48.124;11.578;2023-02-17T09:12:08;4.40;;;2.20;;
982;SDS011;480;48.124;11.578;2023-02-17T09:14:39;6.50;;;2.30;;
982;SDS011;480;48.124;11.578;2023-02-17T09:17:06;4.67;;;2.83;;
982;SDS011;480;48.124;11.578;2023-02-17T09:19:36;4.73;;;3.33;;
982;SDS011;480;48.124;11.578;2023-02-17T09:22:04;4.50;;;2.53;;
982;SDS011;480;48.124;11.578;2023-02-17T09:24:34;4.60;;;2.50;;
982;SDS011;480;48.124;11.578;2023-02-17T09:27:04;3.33;;;2.73;;
982;SDS011;480;48.124;11.578;2023-02-17T09:29:31;5.97;;;3.60;;
982;SDS011;480;48.124;11.578;2023-02-17T09:32:00;3.47;;;2.63;;
982;SDS011;480;48.124;11.578;2023-02-17T09:34:32;5.30;;;2.67;;
982;SDS011;480;48.124;11.578;2023-02-17T09:37:00;3.53;;;2.77;;
982;SDS011;480;48.124;11.578;2023-02-17T09:39:28;4.93;;;3.00;;
982;SDS011;480;48.124;11.578;2023-02-17T09:41:55;2.83;;;2.63;;
982;SDS011;480;48.124;11.578;2023-02-17T09:44:23;5.20;;;2.40;;
982;SDS011;480;48.124;11.578;2023-02-17T09:46:56;6.50;;;3.50;;
982;SDS011;480;48.124;11.578;2023-02-17T09:49:34;7.87;;;3.63;;
982;SDS011;480;48.124;11.578;2023-02-17T09:52:05;2.63;;;2.17;;
982;SDS011;480;48.124;11.578;2023-02-17T09:57:03;6.90;;;2.60;;
982;SDS011;480;48.124;11.578;2023-02-17T09:59:34;3.20;;;2.37;;
982;SDS011;480;48.124;11.578;2023-02-17T10:02:10;5.70;;;2.90;;
982;SDS011;480;48.124;11.578;2023-02-17T10:04:43;3.30;;;2.70;;
982;SDS011;480;48.124;11.578;2023-02-17T10:07:15;4.10;;;2.53;;
982;SDS011;480;48.124;11.578;2023-02-17T10:09:50;8.43;;;2.80;;
982;SDS011;480;48.124;11.578;2023-02-17T10:12:23;3.93;;;2.50;;
982;SDS011;480;48.124;11.578;2023-02-17T10:14:56;5.30;;;3.20;;
982;SDS011;480;48.124;11.578;2023-02-17T10:17:31;3.07;;;2.23;;
982;SDS011;480;48.124;11.578;2023-02-17T10:20:03;5.07;;;2.50;;
982;SDS011;480;48.124;11.578;2023-02-17T10:22:33;4.23;;;2.50;;
982;SDS011;480;48.124;11.578;2023-02-17T10:25:01;2.77;;;2.20;;
982;SDS011;480;48.124;11.578;2023-02-17T10:27:39;5.57;;;2.13;;
982;SDS011;480;48.124;11.578;2023-02-17T10:30:19;6.07;;;2.73;;
982;SDS011;480;48.124;11.578;2023-02-17T10:33:00;6.23;;;2.47;;
982;SDS011;480;48.124;11.578;2023-02-17T10:35:44;2.67;;;2.10;;
982;SDS011;480;48.124;11.578;2023-02-17T10:38:17;2.57;;;2.37;;
982;SDS011;480;48.124;11.578;2023-02-17T10:40:53;3.47;;;3.13;;
982;SDS011;480;48.124;11.578;2023-02-17T10:43:21;3.47;;;2.20;;
982;SDS011;480;48.124;11.578;2023-02-17T10:45:55;2.20;;;1.93;;
982;SDS011;480;48.124;11.578;2023-02-17T10:48:26;3.13;;;2.83;;
982;SDS011;480;48.124;11.578;2023-02-17T10:50:59;3.23;;;2.50;;
982;SDS011;480;48.124;11.578;2023-02-17T10:53:29;2.50;;;2.30;;
982;SDS011;480;48.124;11.578;2023-02-17T10:56:01;4.50;;;2.70;;
982;SDS011;480;48.124;11.578;2023-02-17T10:58:32;3.83;;;2.40;;
982;SDS011;480;48.124;11.578;2023-02-17T11:01:03;3.57;;;2.17;;
982;SDS011;480;48.124;11.578;2023-02-17T11:03:38;3.97;;;2.70;;
982;SDS011;480;48.124;11.578;2023-02-17T11:06:13;8.70;;;2.50;;
982;SDS011;480;48.124;11.578;2023-02-17T11:08:48;5.30;;;3.40;;
982;SDS011;480;48.124;11.578;2023-02-17T11:11:18;5.43;;;2.60;;
982;SDS011;480;48.124;11.578;2023-02-17T11:13:55;3.47;;;2.27;;
982;SDS011;480;48.124;11.578;2023-02-17T11:16:31;2.60;;;2.00;;
982;SDS011;480;48.124;11.578;2023-02-17T11:19:04;2.80;;;2.43;;
982;SDS011;480;48.124;11.578;2023-02-17T11:21:32;4.50;;;2.50;;
982;SDS011;480;48.124;11.578;2023-02-17T11:24:01;2.77;;;2.57;;
982;SDS011;480;48.124;11.578;2023-02-17T11:26:34;3.00;;;1.83;;
982;SDS011;480;48.124;11.578;2023-02-17T11:29:08;2.60;;;1.93;;
982;SDS011;480;48.124;11.578;2023-02-17T11:31:40;7.37;;;2.80;;
982;SDS011;480;48.124;11.578;2023-02-17T11:34:14;5.27;;;3.23;;
982;SDS011;480;48.124;11.578;2023-02-17T11:36:55;3.23;;;2.50;;
982;SDS011;480;48.124;11.578;2023-02-17T11:39:26;4.90;;;2.17;;
982;SDS011;480;48.124;11.578;2023-02-17T11:41:54;6.00;;;2.60;;
982;SDS011;480;48.124;11.578;2023-02-17T11:44:22;3.63;;;2.13;;
982;SDS011;480;48.124;11.578;2023-02-17T11:46:53;4.03;;;2.80;;
982;SDS011;480;48.124;11.578;2023-02-17T11:49:41;3.00;;;1.60;;
982;SDS011;480;48.124;11.578;2023-02-17T11:52:45;5.03;;;2.60;;
982;SDS011;480;48.124;11.578;2023-02-17T11:55:21;3.50;;;2.10;;
982;SDS011;480;48.124;11.578;2023-02-17T11:57:57;2.07;;;1.90;;
982;SDS011;480;48.124;11.578;2023-02-17T12:00:42;5.73;;;2.40;;
982;SDS011;480;48.124;11.578;2023-02-17T12:06:28;3.83;;;2.40;;
982;SDS011;480;48.124;11.578;2023-02-17T12:09:03;3.10;;;1.80;;
982;SDS011;480;48.124;11.578;2023-02-17T12:11:39;2.43;;;2.00;;
982;SDS011;480;48.124;11.578;2023-02-17T12:14:25;2.43;;;2.17;;
982;SDS011;480;48.124;11.578;2023-02-17T12:17:12;3.60;;;2.27;;
982;SDS011;480;48.124;11.578;2023-02-17T12:19:48;3.40;;;3.10;;
982;SDS011;480;48.124;11.578;2023-02-17T12:22:24;4.20;;;2.40;;
982;SDS011;480;48.124;11.578;2023-02-17T12:27:53;3.30;;;2.43;;
982;SDS011;480;48.124;11.578;2023-02-17T12:30:32;4.63;;;2.07;;
982;SDS011;480;48.124;11.578;2023-02-17T12:33:10;2.13;;;1.90;;
982;SDS011;480;48.124;11.578;2023-02-17T12:35:54;3.63;;;2.17;;
982;SDS011;480;48.124;11.578;2023-02-17T12:38:25;1.67;;;1.57;;
982;SDS011;480;48.124;11.578;2023-02-17T12:41:01;5.20;;;2.10;;
982;SDS011;480;48.124;11.578;2023-02-17T12:43:34;5.90;;;2.60;;
982;SDS011;480;48.124;11.578;2023-02-17T12:46:08;2.50;;;1.50;;
982;SDS011;480;48.124;11.578;2023-02-17T12:48:43;2.43;;;1.70;;
982;SDS011;480;48.124;11.578;2023-02-17T12:51:19;8.10;;;2.10;;
982;SDS011;480;48.124;11.578;2023-02-17T12:53:53;5.03;;;2.00;;
982;SDS011;480;48.124;11.578;2023-02-17T12:56:41;8.07;;;2.53;;
982;SDS011;480;48.124;11.578;2023-02-17T12:59:16;3.50;;;1.60;;
982;SDS011;480;48.124;11.578;2023-02-17T13:01:49;4.63;;;1.87;;
982;SDS011;480;48.124;11.578;2023-02-17T13:04:22;2.20;;;1.97;;
982;SDS011;480;48.124;11.578;2023-02-17T13:06:53;2.10;;;1.97;;
982;SDS011;480;48.124;11.578;2023-02-17T13:09:30;1.83;;;1.73;;
982;SDS011;480;48.124;11.578;2023-02-17T13:12:15;6.43;;;2.23;;
982;SDS011;480;48.124;11.578;2023-02-17T13:14:55;2.87;;;1.70;;
982;SDS011;480;48.124;11.578;2023-02-17T13:17:24;2.67;;;2.27;;
982;SDS011;480;48.124;11.578;2023-02-17T13:20:02;3.23;;;2.30;;
982;SDS011;480;48.124;11.578;2023-02-17T13:22:48;4.10;;;2.10;;
982;SDS011;480;48.124;11.578;2023-02-17T13:25:27;3.77;;;2.30;;
982;SDS011;480;48.124;11.578;2023-02-17T13:27:56;2.27;;;1.90;;
982;SDS011;480;48.124;11.578;2023-02-17T13:30:26;2.57;;;1.60;;
982;SDS011;480;48.124;11.578;2023-02-17T13:32:59;2.30;;;1.90;;
982;SDS011;480;48.124;11.578;2023-02-17T13:35:30;4.43;;;2.00;;
982;SDS011;480;48.124;11.578;2023-02-17T13:37:58;2.10;;;2.00;;
982;SDS011;480;48.124;11.578;2023-02-17T13:40:34;3.07;;;1.87;;
982;SDS011;480;48.124;11.578;2023-02-17T13:43:13;2.17;;;1.97;;
982;SDS011;480;48.124;11.578;2023-02-17T13:45:56;2.37;;;1.93;;
982;SDS011;480;48.124;11.578;2023-02-17T13:50:59;4.60;;;1.93;;
982;SDS011;480;48.124;11.578;2023-02-17T13:53:28;2.13;;;1.90;;
982;SDS011;480;48.124;11.578;2023-02-17T13:55:59;2.20;;;1.93;;
982;SDS011;480;48.124;11.578;2023-02-17T13:58:28;2.30;;;1.47;;
982;SDS011;480;48.124;11.578;2023-02-17T14:00:56;3.07;;;1.90;;
982;SDS011;480;48.124;11.578;2023-02-17T14:03:25;2.00;;;1.60;;
982;SDS011;480;48.124;11.578;2023-02-17T14:05:55;2.80;;;1.80;;
982;SDS011;480;48.124;11.578;2023-02-17T14:08:28;2.00;;;1.80;;
982;SDS011;480;48.124;11.578;2023-02-17T14:11:05;2.27;;;1.90;;
982;SDS011;480;48.124;11.578;2023-02-17T14:13:35;1.77;;;1.60;;
982;SDS011;480;48.124;11.578;2023-02-17T14:16:20;2.30;;;1.40;;
982;SDS011;480;48.124;11.578;2023-02-17T14:19:00;4.27;;;2.00;;
982;SDS011;480;48.124;11.578;2023-02-17T14:21:31;2.53;;;2.13;;
982;SDS011;480;48.124;11.578;2023-02-17T14:24:00;2.43;;;2.23;;
982;SDS011;480;48.124;11.578;2023-02-17T14:26:30;3.37;;;1.93;;
982;SDS011;480;48.124;11.578;2023-02-17T14:29:01;2.57;;;2.37;;
982;SDS011;480;48.124;11.578;2023-02-17T14:31:35;2.17;;;1.80;;
982;SDS011;480;48.124;11.578;2023-02-17T14:34:04;2.97;;;1.60;;
982;SDS011;480;48.124;11.578;2023-02-17T14:36:33;2.30;;;2.10;;
982;SDS011;480;48.124;11.578;2023-02-17T14:39:02;2.87;;;2.30;;
982;SDS011;480;48.124;11.578;2023-02-17T14:41:33;2.83;;;1.40;;
982;SDS011;480;48.124;11.578;2023-02-17T14:44:01;1.90;;;1.80;;
982;SDS011;480;48.124;11.578;2023-02-17T14:46:30;2.60;;;1.73;;
982;SDS011;480;48.124;11.578;2023-02-17T14:48:57;1.67;;;1.57;;
982;SDS011;480;48.124;11.578;2023-02-17T14:51:29;2.60;;;2.40;;
982;SDS011;480;48.124;11.578;2023-02-17T14:53:59;2.10;;;1.73;;
982;SDS011;480;48.124;11.578;2023-02-17T14:56:28;2.53;;;1.70;;
982;SDS011;480;48.124;11.578;2023-02-17T14:59:00;3.40;;;1.57;;
982;SDS011;480;48.124;11.578;2023-02-17T15:01:27;2.83;;;2.60;;
982;SDS011;480;48.124;11.578;2023-02-17T15:03:54;2.77;;;1.97;;
982;SDS011;480;48.124;11.578;2023-02-17T15:06:23;2.40;;;1.93;;
982;SDS011;480;48.124;11.578;2023-02-17T15:08:51;2.27;;;2.07;;
982;SDS011;480;48.124;11.578;2023-02-17T15:11:20;1.97;;;1.73;;
982;SDS011;480;48.124;11.578;2023-02-17T15:13:52;1.83;;;1.73;;
982;SDS011;480;48.124;11.578;2023-02-17T15:16:22;4.67;;;2.27;;
982;SDS011;480;48.124;11.578;2023-02-17T15:18:49;3.57;;;1.60;;
982;SDS011;480;48.124;11.578;2023-02-17T15:21:22;2.50;;;1.60;;
982;SDS011;480;48.124;11.578;2023-02-17T15:23:52;2.90;;;1.43;;
982;SDS011;480;48.124;11.578;2023-02-17T15:26:20;3.80;;;2.23;;
982;SDS011;480;48.124;11.578;2023-02-17T15:28:48;2.10;;;1.90;;
982;SDS011;480;48.124;11.578;2023-02-17T15:31:15;3.30;;;1.63;;
982;SDS011;480;48.124;11.578;2023-02-17T15:33:48;2.40;;;1.47;;
982;SDS011;480;48.124;11.578;2023-02-17T15:36:20;2.17;;;1.73;;
982;SDS011;480;48.124;11.578;2023-02-17T15:38:48;2.20;;;1.90;;
982;SDS011;480;48.124;11.578;2023-02-17T15:41:16;1.33;;;1.13;;
982;SDS011;480;48.124;11.578;2023-02-17T15:43:45;1.83;;;1.43;;
982;SDS011;480;48.124;11.578;2023-02-17T15:46:14;4.67;;;1.63;;
982;SDS011;480;48.124;11.578;2023-02-17T15:48:43;2.67;;;2.27;;
982;SDS011;480;48.124;11.578;2023-02-17T15:51:16;1.73;;;1.63;;
982;SDS011;480;48.124;11.578;2023-02-17T15:53:45;2.13;;;1.63;;
982;SDS011;480;48.124;11.578;2023-02-17T15:56:20;2.03;;;1.93;;
982;SDS011;480;48.124;11.578;2023-02-17T15:58:47;3.27;;;2.07;;
982;SDS011;480;48.124;11.578;2023-02-17T16:01:16;3.50;;;2.17;;
982;SDS011;480;48.124;11.578;2023-02-17T16:03:51;2.50;;;1.93;;
982;SDS011;480;48.124;11.578;2023-02-17T16:06:22;2.47;;;2.27;;
982;SDS011;480;48.124;11.578;2023-02-17T16:08:49;2.43;;;1.63;;
982;SDS011;480;48.124;11.578;2023-02-17T16:11:17;1.60;;;1.10;;
982;SDS011;480;48.124;11.578;2023-02-17T16:13:50;2.37;;;1.57;;
982;SDS011;480;48.124;11.578;2023-02-17T16:16:19;1.90;;;1.80;;